createdAt,value
2023-05-21T00:00:51.739Z,72.27
2023-05-21T00:03:18.434Z,71.99
2023-05-21T00:05:47.044Z,71.46
2023-05-21T00:08:14.159Z,71.48
2023-05-21T00:10:40.944Z,71.16
2023-05-21T00:13:08.985Z,71.85
2023-05-21T00:15:35.785Z,71.45
2023-05-21T00:18:02.696Z,71.91
2023-05-21T00:20:32.180Z,71.29
2023-05-21T00:22:59.561Z,71.94
2023-05-21T00:25:26.058Z,71.37
2023-05-21T00:27:52.446Z,71.79
2023-05-21T00:30:18.968Z,71.67
2023-05-21T00:32:45.464Z,71.75
2023-05-21T00:35:12.062Z,71.26
2023-05-21T00:37:38.515Z,71.50
2023-05-21T00:40:07.661Z,71.59
2023-05-21T00:42:39.285Z,72.25
2023-05-21T00:45:07.190Z,72.21
2023-05-21T00:47:35.203Z,72.53
2023-05-21T00:50:03.954Z,71.94
2023-05-21T00:52:30.995Z,72.02
2023-05-21T00:54:57.618Z,72.32
2023-05-21T00:57:25.486Z,72.59
2023-05-21T00:59:53.135Z,72.39
2023-05-21T01:02:19.908Z,72.39
2023-05-21T01:04:46.541Z,73.09
2023-05-21T01:07:14.593Z,72.77
2023-05-21T01:09:42.547Z,72.20
2023-05-21T01:12:10.562Z,72.24
2023-05-21T01:14:38.265Z,72.78
2023-05-21T01:17:06.336Z,72.21
2023-05-21T01:19:35.429Z,73.03
2023-05-21T01:22:07.268Z,73.17
2023-05-21T01:24:34.892Z,73.46
2023-05-21T01:27:03.099Z,72.48
2023-05-21T01:29:29.779Z,74.03
2023-05-21T01:32:22.666Z,74.05
2023-05-21T01:35:08.112Z,74.22
2023-05-21T01:37:46.202Z,74.29
2023-05-21T01:40:31.412Z,75.12
2023-05-21T01:42:58.732Z,74.17
2023-05-21T01:45:27.587Z,75.53
2023-05-21T01:47:56.375Z,75.68
2023-05-21T01:50:26.716Z,75.84
2023-05-21T01:52:55.168Z,76.41
2023-05-21T01:55:24.971Z,76.05
2023-05-21T01:57:53.572Z,76.69
2023-05-21T02:00:26.897Z,76.20
2023-05-21T02:02:53.896Z,76.27
2023-05-21T02:05:20.513Z,76.56
2023-05-21T02:07:47.419Z,76.34
2023-05-21T02:10:14.245Z,76.11
2023-05-21T02:12:40.881Z,76.83
2023-05-21T02:15:08.789Z,77.17
2023-05-21T02:17:35.479Z,76.87
2023-05-21T02:20:11.600Z,76.48
2023-05-21T02:22:42.548Z,76.86
2023-05-21T02:25:10.145Z,77.09
2023-05-21T02:27:37.842Z,77.00
2023-05-21T02:30:06.883Z,77.56
2023-05-21T02:32:34.046Z,77.32
2023-05-21T02:35:02.066Z,77.92
2023-05-21T02:37:28.657Z,77.97
2023-05-21T02:39:55.705Z,77.56
2023-05-21T02:42:23.486Z,77.40
2023-05-21T02:44:53.524Z,77.62
2023-05-21T02:47:21.126Z,77.96
2023-05-21T02:49:50.468Z,77.93
2023-05-21T02:52:24.048Z,78.26
2023-05-21T02:54:52.074Z,78.64
2023-05-21T02:57:18.725Z,78.24
2023-05-21T02:59:45.973Z,78.65
2023-05-21T03:02:12.617Z,78.80
2023-05-21T03:04:45.930Z,78.88
2023-05-21T03:07:18.942Z,79.22
2023-05-21T03:09:46.147Z,80.61
2023-05-21T03:12:12.698Z,80.45
2023-05-21T03:14:39.218Z,80.40
2023-05-21T03:17:06.601Z,80.06
2023-05-21T03:19:37.036Z,80.40
2023-05-21T03:22:05.012Z,80.12
2023-05-21T03:24:35.237Z,80.16
2023-05-21T03:27:02.046Z,80.71
2023-05-21T03:29:28.925Z,80.73
2023-05-21T03:31:56.062Z,80.03
2023-05-21T03:34:23.224Z,80.94
2023-05-21T03:36:50.595Z,80.61
2023-05-21T03:39:18.466Z,80.82
2023-05-21T03:41:45.067Z,80.90
2023-05-21T03:44:19.277Z,80.04
2023-05-21T03:46:51.452Z,80.35
2023-05-21T03:49:24.995Z,79.64
2023-05-21T03:51:54.123Z,80.78
2023-05-21T03:54:21.296Z,80.43
2023-05-21T03:56:49.635Z,80.20
2023-05-21T03:59:16.272Z,80.30
2023-05-21T04:01:45.213Z,80.92
2023-05-21T04:04:14.495Z,80.49
2023-05-21T04:06:44.464Z,79.95
2023-05-21T04:09:12.379Z,79.85
2023-05-21T04:11:38.953Z,80.82
2023-05-21T04:14:05.394Z,80.27
2023-05-21T04:16:34.807Z,79.97
2023-05-21T04:19:01.636Z,79.65
2023-05-21T04:21:29.766Z,78.99
2023-05-21T04:23:57.546Z,78.87
2023-05-21T04:26:42.316Z,78.67
2023-05-21T04:29:09.996Z,78.81
2023-05-21T04:31:36.713Z,78.92
2023-05-21T04:34:04.264Z,78.72
2023-05-21T04:36:31.186Z,78.32
2023-05-21T04:38:57.644Z,77.27
2023-05-21T04:41:24.125Z,77.35
2023-05-21T04:43:55.383Z,77.08
2023-05-21T04:46:25.221Z,77.23
2023-05-21T04:48:54.819Z,77.80
2023-05-21T04:51:24.683Z,76.71
2023-05-21T04:53:51.426Z,76.03
2023-05-21T04:56:18.570Z,75.36
2023-05-21T04:58:47.840Z,75.01
2023-05-21T05:01:15.863Z,74.90
2023-05-21T05:03:42.447Z,75.34
2023-05-21T05:06:09.082Z,72.82
2023-05-21T05:08:35.859Z,73.12
2023-05-21T05:11:03.192Z,73.21
2023-05-21T05:13:29.896Z,72.20
2023-05-21T05:15:57.479Z,70.66
2023-05-21T05:18:24.218Z,71.00
2023-05-21T05:20:50.771Z,71.37
2023-05-21T05:23:17.255Z,70.64
2023-05-21T05:25:43.762Z,70.65
2023-05-21T05:28:10.708Z,70.15
2023-05-21T05:30:37.488Z,70.87
2023-05-21T05:33:15.715Z,70.18
2023-05-21T05:35:42.797Z,70.84
2023-05-21T05:38:09.270Z,71.77
2023-05-21T05:40:36.751Z,71.05
2023-05-21T05:43:03.394Z,70.22
2023-05-21T05:45:29.846Z,69.65
2023-05-21T05:47:56.560Z,70.67
2023-05-21T05:50:23.229Z,68.50
2023-05-21T05:52:49.937Z,68.85
2023-05-21T05:55:16.395Z,69.14
2023-05-21T05:57:45.000Z,68.64
2023-05-21T06:00:14.663Z,67.25
2023-05-21T06:02:45.153Z,67.77
2023-05-21T06:05:11.790Z,65.67
2023-05-21T06:07:38.670Z,65.81
2023-05-21T06:10:08.402Z,66.14
2023-05-21T06:12:35.030Z,66.23
2023-05-21T06:15:01.929Z,65.69
2023-05-21T06:17:28.867Z,65.53
2023-05-21T06:19:55.573Z,64.75
2023-05-21T06:22:24.925Z,64.51
2023-05-21T06:24:52.386Z,64.75
2023-05-21T06:27:18.915Z,64.47
2023-05-21T06:29:45.632Z,63.75
2023-05-21T06:32:13.390Z,63.11
2023-05-21T06:34:41.134Z,62.73
2023-05-21T06:37:07.707Z,62.31
2023-05-21T06:39:34.235Z,62.80
2023-05-21T06:42:00.881Z,62.94
2023-05-21T06:44:53.616Z,62.15
2023-05-21T06:47:25.775Z,62.46
2023-05-21T06:49:52.227Z,62.73
2023-05-21T06:52:18.805Z,62.60
2023-05-21T06:54:46.304Z,61.98
2023-05-21T06:57:14.999Z,62.46
2023-05-21T06:59:42.594Z,62.15
2023-05-21T07:02:09.168Z,62.84
2023-05-21T07:04:35.884Z,62.23
2023-05-21T07:07:04.504Z,61.96
2023-05-21T07:09:31.533Z,62.78
2023-05-21T07:11:58.416Z,61.58
2023-05-21T07:14:26.007Z,61.73
2023-05-21T07:16:52.835Z,61.66
2023-05-21T07:19:19.551Z,60.82
2023-05-21T07:21:46.307Z,62.29
2023-05-21T07:24:12.817Z,60.74
2023-05-21T07:26:40.572Z,60.47
2023-05-21T07:29:07.292Z,61.93
2023-05-21T07:31:33.842Z,60.07
2023-05-21T07:34:00.716Z,59.76
2023-05-21T07:36:31.105Z,60.48
2023-05-21T07:38:58.823Z,59.87
2023-05-21T07:41:25.747Z,58.76
2023-05-21T07:43:53.193Z,61.09
2023-05-21T07:46:20.478Z,61.24
2023-05-21T07:48:50.312Z,61.82
2023-05-21T07:51:17.316Z,59.91
2023-05-21T07:53:44.061Z,58.20
2023-05-21T07:56:12.531Z,58.32
2023-05-21T07:58:40.432Z,57.94
2023-05-21T08:01:07.864Z,56.94
2023-05-21T08:03:34.650Z,56.64
2023-05-21T08:06:01.919Z,57.88
2023-05-21T08:08:28.722Z,58.34
2023-05-21T08:10:57.077Z,58.10
2023-05-21T08:13:25.943Z,57.51
2023-05-21T08:15:53.501Z,57.96
2023-05-21T08:18:23.609Z,56.25
2023-05-21T08:20:51.695Z,57.07
2023-05-21T08:23:19.863Z,58.00
2023-05-21T08:25:50.561Z,56.05
2023-05-21T08:28:17.233Z,55.32
2023-05-21T08:30:43.758Z,55.34
2023-05-21T08:33:11.052Z,54.33
2023-05-21T08:35:38.827Z,53.94
2023-05-21T08:38:30.113Z,53.41
2023-05-21T08:41:01.493Z,52.30
2023-05-21T08:43:29.907Z,51.64
2023-05-21T08:46:00.355Z,49.28
2023-05-21T08:48:31.721Z,48.81
2023-05-21T08:51:01.158Z,47.20
2023-05-21T08:53:34.092Z,47.11
2023-05-21T08:56:01.612Z,46.60
2023-05-21T08:58:49.558Z,45.45
2023-05-21T09:01:19.864Z,46.38
2023-05-21T09:03:52.473Z,45.23
2023-05-21T09:06:19.594Z,45.07
2023-05-21T09:08:54.166Z,45.36
2023-05-21T09:11:29.230Z,46.11
2023-05-21T09:14:00.099Z,47.58
2023-05-21T09:16:50.326Z,47.82
2023-05-21T09:19:21.814Z,49.11
2023-05-21T09:21:51.620Z,48.23
2023-05-21T09:24:23.476Z,48.70
2023-05-21T09:26:51.203Z,48.10
2023-05-21T09:29:18.407Z,48.13
2023-05-21T09:31:45.379Z,47.70
2023-05-21T09:34:14.188Z,47.43
2023-05-21T09:36:43.789Z,46.88
2023-05-21T09:39:11.829Z,45.97
2023-05-21T09:41:38.405Z,45.84
2023-05-21T09:44:05.097Z,45.61
2023-05-21T09:46:41.461Z,46.63
2023-05-21T09:49:22.966Z,45.24
2023-05-21T09:51:49.803Z,44.18
2023-05-21T09:54:16.369Z,43.23
2023-05-21T09:56:42.896Z,44.54
2023-05-21T09:59:09.420Z,44.26
2023-05-21T10:01:37.415Z,44.09
2023-05-21T10:04:08.517Z,43.77
2023-05-21T10:06:38.287Z,43.16
2023-05-21T10:09:10.569Z,42.61
2023-05-21T10:11:37.660Z,42.58
2023-05-21T10:14:07.341Z,43.27
2023-05-21T10:16:35.947Z,43.91
2023-05-21T10:19:04.421Z,43.95
2023-05-21T10:21:33.327Z,44.91
2023-05-21T10:24:02.570Z,43.55
2023-05-21T10:26:30.635Z,43.33
2023-05-21T10:29:00.196Z,43.92
2023-05-21T10:31:27.771Z,42.87
2023-05-21T10:33:55.994Z,43.82
2023-05-21T10:36:24.553Z,43.50
2023-05-21T10:38:51.434Z,42.29
2023-05-21T10:41:20.005Z,43.05
2023-05-21T10:44:12.873Z,41.38
2023-05-21T10:47:01.597Z,40.40
2023-05-21T10:49:54.269Z,38.69
2023-05-21T10:52:52.246Z,38.43
2023-05-21T10:55:49.664Z,39.36
2023-05-21T10:58:48.536Z,38.78
2023-05-21T11:01:16.344Z,38.05
2023-05-21T11:03:43.117Z,38.20
2023-05-21T11:06:11.619Z,38.13
2023-05-21T11:08:38.966Z,38.22
2023-05-21T11:11:05.828Z,38.00
2023-05-21T11:13:49.700Z,38.37
2023-05-21T11:16:17.417Z,38.84
2023-05-21T11:18:46.690Z,37.98
2023-05-21T11:21:18.294Z,37.34
2023-05-21T11:23:55.222Z,37.92
2023-05-21T11:26:24.870Z,38.23
2023-05-21T11:29:11.819Z,37.91
2023-05-21T11:31:38.708Z,38.18
2023-05-21T11:34:18.833Z,37.61
2023-05-21T11:36:49.493Z,37.55
2023-05-21T11:39:21.911Z,37.10
2023-05-21T11:42:04.392Z,36.92
2023-05-21T11:44:41.677Z,37.16
2023-05-21T11:47:10.639Z,36.77
2023-05-21T11:49:37.853Z,36.61
2023-05-21T11:52:10.703Z,37.06
2023-05-21T11:54:50.617Z,37.16
2023-05-21T11:57:18.728Z,36.59
2023-05-21T11:59:46.746Z,36.30
2023-05-21T12:02:17.769Z,35.64
2023-05-21T12:04:46.330Z,35.94
2023-05-21T12:07:16.298Z,36.34
2023-05-21T12:09:43.455Z,36.34
2023-05-21T12:12:11.368Z,37.31
2023-05-21T12:14:37.979Z,36.90
2023-05-21T12:17:06.948Z,36.87
2023-05-21T12:19:36.665Z,37.27
2023-05-21T12:22:04.556Z,37.87
2023-05-21T12:24:32.471Z,36.90
2023-05-21T12:27:02.310Z,37.46
2023-05-21T12:29:30.781Z,36.32
2023-05-21T12:32:02.030Z,37.27
2023-05-21T12:34:44.872Z,37.09
2023-05-21T12:37:25.849Z,35.96
2023-05-21T12:39:54.103Z,36.36
2023-05-21T12:42:31.703Z,36.76
2023-05-21T12:44:58.396Z,36.30
2023-05-21T12:47:29.363Z,34.64
2023-05-21T12:50:01.419Z,34.81
2023-05-21T12:52:28.650Z,34.11
2023-05-21T12:54:56.693Z,34.06
2023-05-21T12:57:30.723Z,34.53
2023-05-21T12:59:59.271Z,34.18
2023-05-21T13:02:39.704Z,34.08
2023-05-21T13:05:08.204Z,35.00
2023-05-21T13:07:37.742Z,35.84
2023-05-21T13:10:06.039Z,36.95
2023-05-21T13:12:33.691Z,37.10
2023-05-21T13:15:02.233Z,37.59
2023-05-21T13:17:29.176Z,36.61
2023-05-21T13:20:10.182Z,36.88
2023-05-21T13:22:46.460Z,37.43
2023-05-21T13:25:18.868Z,37.16
2023-05-21T13:27:46.329Z,37.35
2023-05-21T13:30:12.853Z,37.75
2023-05-21T13:32:40.961Z,38.53
2023-05-21T13:35:08.255Z,37.77
2023-05-21T13:37:37.761Z,38.45
2023-05-21T13:40:15.008Z,38.31
2023-05-21T13:42:43.031Z,38.02
2023-05-21T13:45:13.014Z,37.27
2023-05-21T13:47:40.645Z,37.17
2023-05-21T13:50:08.705Z,36.85
2023-05-21T13:52:35.786Z,35.53
2023-05-21T13:55:02.379Z,37.34
2023-05-21T13:57:30.803Z,35.47
2023-05-21T13:59:58.172Z,35.72
2023-05-21T14:02:25.603Z,35.20
2023-05-21T14:04:52.421Z,34.69
2023-05-21T14:07:19.085Z,33.80
2023-05-21T14:09:47.456Z,33.22
2023-05-21T14:12:14.006Z,33.22
2023-05-21T14:14:40.545Z,32.68
2023-05-21T14:17:07.278Z,34.45
2023-05-21T14:19:33.819Z,34.42
2023-05-21T14:22:00.408Z,34.80
2023-05-21T14:24:27.048Z,34.68
2023-05-21T14:26:53.631Z,33.28
2023-05-21T14:29:20.172Z,34.86
2023-05-21T14:31:46.792Z,36.40
2023-05-21T14:34:13.333Z,36.80
2023-05-21T14:36:39.883Z,36.79
2023-05-21T14:39:06.400Z,37.18
2023-05-21T14:41:32.957Z,37.83
2023-05-21T14:43:59.477Z,39.11
2023-05-21T14:46:26.051Z,39.82
2023-05-21T14:48:52.840Z,39.27
2023-05-21T14:51:19.525Z,39.83
2023-05-21T14:53:46.064Z,39.16
2023-05-21T14:56:12.566Z,40.19
2023-05-21T14:58:39.057Z,39.99
2023-05-21T15:01:05.762Z,41.04
2023-05-21T15:03:32.386Z,40.89
2023-05-21T15:05:59.035Z,41.56
2023-05-21T15:08:25.584Z,41.40
2023-05-21T15:10:52.351Z,40.91
2023-05-21T15:13:18.888Z,41.87
2023-05-21T15:15:48.301Z,40.69
2023-05-21T15:18:14.838Z,40.76
2023-05-21T15:20:41.386Z,40.54
2023-05-21T15:23:16.718Z,40.45
2023-05-21T15:25:44.621Z,40.91
2023-05-21T15:28:12.128Z,41.56
2023-05-21T15:30:39.089Z,41.12
2023-05-21T15:33:05.802Z,41.46
2023-05-21T15:35:32.556Z,41.50
2023-05-21T15:37:59.310Z,40.92
2023-05-21T15:40:27.262Z,41.38
2023-05-21T15:42:54.146Z,40.67
2023-05-21T15:45:20.961Z,39.75
2023-05-21T15:47:47.703Z,39.87
2023-05-21T15:50:14.485Z,39.47
2023-05-21T15:52:44.183Z,39.38
2023-05-21T15:55:10.784Z,39.64
2023-05-21T15:57:37.337Z,39.83
2023-05-21T16:00:05.005Z,39.66
2023-05-21T16:02:35.262Z,40.04
2023-05-21T16:05:01.909Z,39.58
2023-05-21T16:07:28.524Z,40.06
2023-05-21T16:09:55.062Z,39.26
2023-05-21T16:12:21.653Z,40.77
2023-05-21T16:14:50.021Z,40.93
2023-05-21T16:17:17.144Z,41.58
2023-05-21T16:19:43.754Z,41.12
2023-05-21T16:22:10.958Z,41.02
2023-05-21T16:24:37.716Z,41.98
2023-05-21T16:27:04.930Z,42.49
2023-05-21T16:29:31.778Z,42.88
2023-05-21T16:31:58.396Z,42.86
2023-05-21T16:34:24.980Z,42.98
2023-05-21T16:36:52.050Z,43.06
2023-05-21T16:39:18.824Z,43.33
2023-05-21T16:41:45.404Z,43.20
2023-05-21T16:44:11.964Z,43.23
2023-05-21T16:46:38.684Z,43.69
2023-05-21T16:49:05.353Z,43.82
2023-05-21T16:51:31.924Z,44.50
2023-05-21T16:53:58.464Z,45.03
2023-05-21T16:56:25.187Z,44.89
2023-05-21T16:58:51.690Z,44.60
2023-05-21T17:01:18.348Z,45.14
2023-05-21T17:03:45.088Z,45.65
2023-05-21T17:06:11.727Z,46.60
2023-05-21T17:08:38.286Z,46.20
2023-05-21T17:11:04.854Z,46.92
2023-05-21T17:13:31.356Z,47.34
2023-05-21T17:15:57.968Z,47.22
2023-05-21T17:18:24.596Z,47.56
2023-05-21T17:20:51.156Z,47.63
2023-05-21T17:23:17.788Z,47.54
2023-05-21T17:25:44.371Z,48.02
2023-05-21T17:28:11.254Z,47.70
2023-05-21T17:30:37.768Z,47.80
2023-05-21T17:33:04.289Z,48.27
2023-05-21T17:35:30.858Z,48.97
2023-05-21T17:37:57.452Z,52.03
2023-05-21T17:40:24.594Z,52.64
2023-05-21T17:42:52.352Z,50.66
2023-05-21T17:45:19.427Z,50.61
2023-05-21T17:47:46.380Z,51.23
2023-05-21T17:50:12.979Z,51.04
2023-05-21T17:52:39.617Z,51.31
2023-05-21T17:55:07.628Z,52.16
2023-05-21T17:57:35.851Z,53.66
2023-05-21T18:00:04.182Z,54.67
2023-05-21T18:02:38.589Z,54.92
2023-05-21T18:05:05.658Z,55.93
2023-05-21T18:07:32.174Z,56.59
2023-05-21T18:09:58.577Z,56.97
2023-05-21T18:12:25.178Z,56.89
2023-05-21T18:14:51.695Z,57.31
2023-05-21T18:17:18.142Z,58.06
2023-05-21T18:19:44.672Z,58.46
2023-05-21T18:22:11.316Z,59.09
2023-05-21T18:24:38.306Z,60.08
2023-05-21T18:27:05.050Z,59.58
2023-05-21T18:29:31.688Z,59.89
2023-05-21T18:31:58.312Z,60.98
2023-05-21T18:34:25.029Z,60.75
2023-05-21T18:36:54.483Z,60.58
2023-05-21T18:39:24.578Z,60.45
2023-05-21T18:41:55.803Z,60.33
2023-05-21T18:44:29.736Z,61.26
2023-05-21T18:46:59.423Z,62.00
2023-05-21T18:49:26.922Z,62.61
2023-05-21T18:51:53.603Z,62.68
2023-05-21T18:54:20.072Z,63.40
2023-05-21T18:56:46.523Z,63.46
2023-05-21T18:59:13.146Z,64.37
2023-05-21T19:01:39.679Z,63.93
2023-05-21T19:04:06.282Z,64.04
2023-05-21T19:06:32.944Z,64.28
2023-05-21T19:08:59.399Z,65.12
2023-05-21T19:11:30.906Z,65.58
2023-05-21T19:13:58.664Z,66.40
2023-05-21T19:16:25.207Z,66.77
2023-05-21T19:18:51.680Z,67.18
2023-05-21T19:21:18.210Z,67.55
2023-05-21T19:23:52.492Z,67.61
2023-05-21T19:26:22.224Z,67.22
2023-05-21T19:28:53.115Z,67.99
2023-05-21T19:31:21.020Z,67.87
2023-05-21T19:33:47.641Z,68.12
2023-05-21T19:36:14.477Z,68.14
2023-05-21T19:38:48.297Z,68.96
2023-05-21T19:41:18.743Z,68.31
2023-05-21T19:43:45.995Z,68.82
2023-05-21T19:46:13.192Z,69.38
2023-05-21T19:48:39.897Z,69.70
2023-05-21T19:51:06.310Z,69.79
2023-05-21T19:53:34.856Z,69.74
2023-05-21T19:56:01.470Z,69.89
2023-05-21T19:58:29.536Z,70.30
2023-05-21T20:00:58.505Z,70.10
2023-05-21T20:03:26.348Z,70.89
2023-05-21T20:05:53.043Z,70.64
2023-05-21T20:08:19.720Z,70.55
2023-05-21T20:10:47.634Z,71.11
2023-05-21T20:13:16.013Z,71.11
2023-05-21T20:15:42.623Z,71.46
2023-05-21T20:18:09.150Z,71.89
2023-05-21T20:20:38.048Z,72.71
2023-05-21T20:23:04.879Z,73.18
2023-05-21T20:25:31.361Z,72.80
2023-05-21T20:27:58.574Z,72.81
2023-05-21T20:30:31.820Z,73.63
2023-05-21T20:33:00.685Z,74.08
2023-05-21T20:35:27.720Z,74.71
2023-05-21T20:37:54.639Z,75.83
2023-05-21T20:40:21.287Z,75.59
2023-05-21T20:42:50.302Z,75.97
2023-05-21T20:45:17.114Z,75.78
2023-05-21T20:47:43.812Z,76.10
2023-05-21T20:50:12.069Z,76.06
2023-05-21T20:52:38.722Z,75.55
2023-05-21T20:55:05.741Z,75.58
2023-05-21T20:57:32.519Z,74.93
2023-05-21T20:59:59.062Z,76.00
2023-05-21T21:02:25.690Z,76.03
2023-05-21T21:04:53.832Z,76.18
2023-05-21T21:07:20.522Z,76.97
2023-05-21T21:09:48.323Z,77.00
2023-05-21T21:12:26.106Z,77.70
2023-05-21T21:14:54.021Z,77.24
2023-05-21T21:17:20.908Z,76.39
2023-05-21T21:19:47.440Z,76.17
2023-05-21T21:22:15.368Z,76.13
2023-05-21T21:24:41.890Z,75.42
2023-05-21T21:27:08.373Z,75.99
2023-05-21T21:29:34.933Z,75.08
2023-05-21T21:32:01.484Z,75.54
2023-05-21T21:34:29.329Z,75.09
2023-05-21T21:36:56.077Z,74.67
2023-05-21T21:39:22.596Z,75.42
2023-05-21T21:41:49.108Z,74.92
2023-05-21T21:44:15.724Z,74.80
2023-05-21T21:46:42.345Z,75.07
2023-05-21T21:49:08.857Z,75.30
2023-05-21T21:51:35.406Z,75.12
2023-05-21T21:54:01.861Z,75.09
2023-05-21T21:56:29.475Z,74.35
2023-05-21T21:58:55.998Z,74.23
2023-05-21T22:17:34.136Z,78.67
2023-05-21T22:20:01.156Z,78.55
2023-05-21T22:22:27.813Z,77.60
2023-05-21T22:24:54.514Z,76.46
2023-05-21T22:27:21.191Z,75.74
2023-05-21T22:29:47.861Z,74.14
2023-05-21T22:32:14.349Z,75.37
2023-05-21T22:34:41.897Z,75.78
2023-05-21T22:37:08.681Z,77.12
2023-05-21T22:39:35.254Z,76.06
2023-05-21T22:42:01.717Z,77.04
2023-05-21T22:44:28.337Z,78.11
2023-05-21T22:46:56.446Z,78.33
2023-05-21T22:49:23.159Z,82.64
2023-05-21T22:51:51.012Z,82.18
2023-05-21T22:54:17.608Z,81.55
2023-05-21T22:56:44.974Z,80.94
2023-05-21T22:59:11.636Z,81.02
2023-05-21T23:01:38.780Z,80.24
2023-05-21T23:04:05.542Z,79.69
2023-05-21T23:06:32.234Z,78.91
2023-05-21T23:08:58.771Z,78.46
2023-05-21T23:11:26.713Z,77.59
2023-05-21T23:13:53.235Z,76.66
2023-05-21T23:16:19.997Z,75.84
2023-05-21T23:18:47.688Z,77.66
2023-05-21T23:21:14.373Z,77.48
2023-05-21T23:23:40.992Z,77.52
2023-05-21T23:26:07.454Z,79.08
2023-05-21T23:28:36.581Z,78.58
2023-05-21T23:31:03.362Z,78.44
2023-05-21T23:33:29.885Z,77.62
2023-05-21T23:35:56.370Z,77.18
2023-05-21T23:38:22.923Z,76.63
2023-05-21T23:40:49.510Z,77.65
2023-05-21T23:43:16.207Z,78.15
2023-05-21T23:45:42.854Z,81.35
2023-05-21T23:48:09.573Z,81.81
2023-05-21T23:50:36.258Z,81.96
2023-05-21T23:53:02.835Z,81.73
2023-05-21T23:55:29.294Z,80.88
2023-05-21T23:57:55.929Z,80.57
